createdAt,value
2022-08-03T00:00:50.007Z,99445.06
2022-08-03T00:03:19.982Z,99431.41
2022-08-03T00:06:04.386Z,99433.53
2022-08-03T00:08:40.161Z,99441.47
2022-08-03T00:11:11.820Z,99440.84
2022-08-03T00:13:42.258Z,99443.19
2022-08-03T00:16:13.381Z,99432.59
2022-08-03T00:18:43.472Z,99438.16
2022-08-03T00:21:13.615Z,99443.38
2022-08-03T00:23:51.632Z,99441.09
2022-08-03T00:26:24.344Z,99441.47
2022-08-03T00:28:54.201Z,99435.66
2022-08-03T00:31:32.225Z,99430.31
2022-08-03T00:34:09.868Z,99432.59
2022-08-03T00:36:39.741Z,99425.00
2022-08-03T00:39:10.215Z,99421.72
2022-08-03T00:41:41.672Z,99416.97
2022-08-03T00:44:11.530Z,99423.44
2022-08-03T00:46:41.405Z,99423.66
2022-08-03T00:49:11.431Z,99415.28
2022-08-03T00:51:41.420Z,99423.31
2022-08-03T00:54:12.259Z,99427.66
2022-08-03T00:57:00.096Z,99428.44
2022-08-03T00:59:31.591Z,99432.75
2022-08-03T01:02:01.712Z,99433.59
2022-08-03T01:04:31.596Z,99438.97
2022-08-03T01:07:10.761Z,99442.13
2022-08-03T01:09:52.175Z,99437.75
2022-08-03T01:12:31.252Z,99433.81
2022-08-03T01:15:11.538Z,99426.28
2022-08-03T01:17:50.552Z,99438.63
2022-08-03T01:20:23.493Z,99435.50
2022-08-03T01:23:12.304Z,99431.13
2022-08-03T01:26:01.010Z,99437.66
2022-08-03T01:28:55.085Z,99441.78
2022-08-03T01:31:29.352Z,99444.28
2022-08-03T01:34:04.182Z,99441.78
2022-08-03T01:36:41.663Z,99444.34
2022-08-03T01:39:12.591Z,99440.63
2022-08-03T01:41:49.594Z,99442.72
2022-08-03T01:44:29.068Z,99435.63
2022-08-03T01:47:03.813Z,99417.66
2022-08-03T01:49:37.965Z,99454.84
2022-08-03T01:52:09.065Z,99454.84
2022-08-03T01:54:44.309Z,99456.31
2022-08-03T01:57:15.217Z,99459.44
2022-08-03T01:59:48.684Z,99458.47
2022-08-03T02:02:32.628Z,99462.63
2022-08-03T02:05:10.914Z,99462.84
2022-08-03T02:07:42.975Z,99464.75
2022-08-03T02:10:16.164Z,99461.84
2022-08-03T02:13:08.432Z,99461.63
2022-08-03T02:15:40.506Z,99456.78
2022-08-03T02:18:12.922Z,99455.97
2022-08-03T02:20:45.577Z,99457.44
2022-08-03T02:23:17.222Z,99460.38
2022-08-03T02:25:52.076Z,99463.31
2022-08-03T02:28:23.394Z,99462.69
2022-08-03T02:30:55.714Z,99455.97
2022-08-03T02:33:31.677Z,99456.63
2022-08-03T02:36:03.583Z,99467.09
2022-08-03T02:38:37.268Z,99450.81
2022-08-03T02:41:09.324Z,99457.47
2022-08-03T02:44:07.111Z,99461.47
2022-08-03T02:46:35.048Z,99464.84
2022-08-03T02:49:40.623Z,99462.53
2022-08-03T02:52:00.292Z,99462.50
2022-08-03T02:54:31.838Z,99465.84
2022-08-03T02:57:03.415Z,99454.97
2022-08-03T02:59:33.687Z,99469.16
2022-08-03T03:02:04.034Z,99465.00
2022-08-03T03:04:36.238Z,99465.00
2022-08-03T03:07:06.807Z,99476.25
2022-08-03T03:09:42.012Z,99472.50
2022-08-03T03:12:15.207Z,99468.13
2022-08-03T03:14:45.807Z,99462.91
2022-08-03T03:17:17.813Z,99478.97
2022-08-03T03:19:51.160Z,99484.19
2022-08-03T03:22:22.949Z,99481.25
2022-08-03T03:24:54.739Z,99482.53
2022-08-03T03:27:25.112Z,99487.50
2022-08-03T03:29:58.270Z,99488.59
2022-08-03T03:32:29.109Z,99492.09
2022-08-03T03:35:01.325Z,99488.78
2022-08-03T03:37:31.414Z,99490.03
2022-08-03T03:40:01.463Z,99490.84
2022-08-03T03:42:31.855Z,99495.50
2022-08-03T03:45:05.091Z,99489.63
2022-08-03T03:47:35.656Z,99504.69
2022-08-03T03:50:08.245Z,99514.53
2022-08-03T03:52:38.357Z,99514.13
2022-08-03T03:55:09.410Z,99512.44
2022-08-03T03:57:39.319Z,99517.03
2022-08-03T04:00:10.425Z,99514.94
2022-08-03T04:02:40.613Z,99514.09
2022-08-03T04:05:30.160Z,99511.78
2022-08-03T04:08:19.554Z,99521.00
2022-08-03T04:11:00.719Z,99515.75
2022-08-03T04:13:34.716Z,99519.75
2022-08-03T04:16:06.367Z,99518.25
2022-08-03T04:18:39.560Z,99523.69
2022-08-03T04:21:16.309Z,99520.16
2022-08-03T04:23:49.972Z,99516.19
2022-08-03T04:26:24.087Z,99522.22
2022-08-03T04:28:55.757Z,99517.22
2022-08-03T04:31:27.252Z,99525.16
2022-08-03T04:33:57.943Z,99526.41
2022-08-03T04:36:33.721Z,99528.91
2022-08-03T04:39:07.943Z,99531.84
2022-08-03T04:42:04.412Z,99534.38
2022-08-03T04:44:32.882Z,99535.38
2022-08-03T04:47:03.612Z,99528.25
2022-08-03T04:49:34.027Z,99537.44
2022-08-03T04:52:06.087Z,99536.78
2022-08-03T04:54:41.035Z,99540.16
2022-08-03T04:57:11.624Z,99543.25
2022-08-03T05:00:02.524Z,99542.78
2022-08-03T05:02:33.623Z,99541.66
2022-08-03T05:05:03.629Z,99545.63
2022-08-03T05:07:36.185Z,99547.47
2022-08-03T05:10:15.977Z,99550.84
2022-08-03T05:12:47.553Z,99545.31
2022-08-03T05:15:18.056Z,99547.84
2022-08-03T05:17:47.892Z,99552.59
2022-08-03T05:20:18.891Z,99554.44
2022-08-03T05:22:50.662Z,99552.31
2022-08-03T05:25:23.369Z,99553.75
2022-08-03T05:27:57.338Z,99556.31
2022-08-03T05:30:34.161Z,99551.31
2022-08-03T05:33:04.991Z,99564.28
2022-08-03T05:36:02.675Z,99555.81
2022-08-03T05:38:34.280Z,99560.19
2022-08-03T05:41:20.570Z,99565.31
2022-08-03T05:43:54.979Z,99556.72
2022-08-03T05:46:25.047Z,99568.78
2022-08-03T05:48:55.159Z,99569.53
2022-08-03T05:51:26.390Z,99565.84
2022-08-03T05:53:58.568Z,99564.56
2022-08-03T05:56:33.709Z,99570.16
2022-08-03T05:59:28.705Z,99554.88
2022-08-03T06:01:55.888Z,99560.66
2022-08-03T06:04:26.098Z,99575.06
2022-08-03T06:06:56.603Z,99545.03
2022-08-03T06:09:56.588Z,99578.53
2022-08-03T06:12:20.856Z,99582.56
2022-08-03T06:14:53.626Z,99582.84
2022-08-03T06:17:27.870Z,99588.59
2022-08-03T06:20:14.937Z,99577.31
2022-08-03T06:22:50.874Z,99582.31
2022-08-03T06:25:26.153Z,99585.56
2022-08-03T06:27:56.852Z,99590.88
2022-08-03T06:30:27.452Z,99591.78
2022-08-03T06:32:58.919Z,99595.00
2022-08-03T06:35:31.705Z,99594.03
2022-08-03T06:38:01.775Z,99588.00
2022-08-03T06:40:40.214Z,99581.94
2022-08-03T06:43:12.861Z,99587.53
2022-08-03T06:45:47.685Z,99580.16
2022-08-03T06:48:18.909Z,99584.44
2022-08-03T06:50:49.461Z,99587.81
2022-08-03T06:53:19.850Z,99586.44
2022-08-03T06:55:59.974Z,99586.28
2022-08-03T06:58:31.733Z,99587.16
2022-08-03T07:01:02.597Z,99583.69
2022-08-03T07:03:34.291Z,99592.47
2022-08-03T07:06:05.636Z,99588.19
2022-08-03T07:08:36.243Z,99592.28
2022-08-03T07:11:10.890Z,99594.75
2022-08-03T07:13:43.891Z,99569.69
2022-08-03T07:16:14.257Z,99600.38
2022-08-03T07:18:44.768Z,99584.84
2022-08-03T07:21:16.807Z,99595.28
2022-08-03T07:23:50.020Z,99592.47
2022-08-03T07:26:23.229Z,99589.22
2022-08-03T07:28:55.194Z,99588.16
2022-08-03T07:31:26.374Z,99596.25
2022-08-03T07:34:00.376Z,99599.09
2022-08-03T07:36:32.405Z,99590.28
2022-08-03T07:39:16.626Z,99595.03
2022-08-03T07:41:55.250Z,99589.81
2022-08-03T07:44:25.933Z,99590.50
2022-08-03T07:46:59.190Z,99594.31
2022-08-03T07:49:34.527Z,99583.84
2022-08-03T07:52:23.297Z,99585.66
2022-08-03T07:54:59.787Z,99582.16
2022-08-03T07:57:32.206Z,99585.50
2022-08-03T08:00:04.655Z,99586.66
2022-08-03T08:02:35.229Z,99587.75
2022-08-03T08:05:06.275Z,99591.50
2022-08-03T08:07:36.980Z,99594.34
2022-08-03T08:10:08.359Z,99601.72
2022-08-03T08:12:41.685Z,99593.06
2022-08-03T08:15:16.526Z,99594.81
2022-08-03T08:17:49.396Z,99593.00
2022-08-03T08:20:23.826Z,99594.00
2022-08-03T08:23:03.633Z,99591.72
2022-08-03T08:25:52.670Z,99585.88
2022-08-03T08:28:32.482Z,99586.19
2022-08-03T08:31:04.639Z,99570.84
2022-08-03T08:36:27.511Z,99542.09
2022-08-03T08:38:57.771Z,99577.41
2022-08-03T08:41:32.249Z,99576.25
2022-08-03T08:44:08.231Z,99570.59
2022-08-03T08:46:40.948Z,99573.06
2022-08-03T08:49:12.388Z,99581.00
2022-08-03T08:51:59.493Z,99575.06
2022-08-03T08:54:33.948Z,99575.94
2022-08-03T08:57:16.387Z,99584.84
2022-08-03T08:59:59.456Z,99579.63
2022-08-03T09:02:32.198Z,99573.13
2022-08-03T09:05:13.230Z,99573.38
2022-08-03T09:07:46.298Z,99550.94
2022-08-03T09:10:22.125Z,99566.09
2022-08-03T09:12:54.443Z,99556.16
2022-08-03T09:15:31.433Z,99549.50
2022-08-03T09:18:03.813Z,99554.97
2022-08-03T09:20:36.879Z,99559.31
2022-08-03T09:23:59.090Z,99559.31
2022-08-03T09:26:02.856Z,99551.59
2022-08-03T09:28:59.942Z,99559.44
2022-08-03T09:31:43.462Z,99549.34
2022-08-03T09:34:15.630Z,99548.69
2022-08-03T09:36:47.917Z,99540.88
2022-08-03T09:39:41.802Z,99542.69
2022-08-03T09:42:14.766Z,99545.50
2022-08-03T09:44:46.698Z,99545.22
2022-08-03T09:47:31.303Z,99547.13
2022-08-03T09:50:10.728Z,99538.63
2022-08-03T09:52:49.597Z,99542.56
2022-08-03T09:56:35.040Z,99535.78
2022-08-03T09:58:16.623Z,99535.47
2022-08-03T10:00:59.504Z,99532.75
2022-08-03T10:03:33.145Z,99521.03
2022-08-03T10:06:17.149Z,99527.06
2022-08-03T10:08:48.078Z,99516.44
2022-08-03T10:11:31.625Z,99508.97
2022-08-03T10:14:05.086Z,99522.53
2022-08-03T10:16:37.588Z,99517.13
2022-08-03T10:19:11.534Z,99504.28
2022-08-03T10:21:50.833Z,99504.88
2022-08-03T10:24:28.084Z,99512.22
2022-08-03T10:27:03.277Z,99512.28
2022-08-03T10:29:40.634Z,99510.31
2022-08-03T10:32:17.861Z,99507.81
2022-08-03T10:34:59.830Z,99506.38
2022-08-03T10:37:33.793Z,99497.13
2022-08-03T10:40:05.118Z,99495.28
2022-08-03T10:42:37.242Z,99503.88
2022-08-03T10:45:10.868Z,99497.47
2022-08-03T10:47:43.537Z,99501.63
2022-08-03T10:50:16.787Z,99497.13
2022-08-03T10:52:58.691Z,99497.38
2022-08-03T10:55:54.156Z,99489.94
2022-08-03T10:58:57.643Z,99492.72
2022-08-03T11:02:00.042Z,99479.34
2022-08-03T11:04:36.477Z,99484.28
2022-08-03T11:07:25.307Z,99477.16
2022-08-03T11:09:57.365Z,99467.47
2022-08-03T11:12:32.281Z,99477.88
2022-08-03T11:15:07.928Z,99475.84
2022-08-03T11:17:46.449Z,99476.88
2022-08-03T11:20:48.495Z,99466.28
2022-08-03T11:24:04.810Z,99468.16
2022-08-03T11:26:36.338Z,99469.47
2022-08-03T11:29:29.295Z,99470.16
2022-08-03T11:31:59.664Z,99467.03
2022-08-03T11:34:32.176Z,99458.19
2022-08-03T11:37:32.972Z,99455.34
2022-08-03T11:40:36.282Z,99452.06
2022-08-03T11:43:08.460Z,99461.44
2022-08-03T11:45:57.318Z,99446.69
2022-08-03T11:48:37.524Z,99440.97
2022-08-03T11:51:21.324Z,99448.16
2022-08-03T11:53:56.674Z,99443.22
2022-08-03T11:56:44.434Z,99440.78
2022-08-03T11:59:22.227Z,99430.09
2022-08-03T12:01:53.637Z,99436.13
2022-08-03T12:04:24.127Z,99441.78
2022-08-03T12:07:02.117Z,99435.97
2022-08-03T12:09:34.500Z,99436.03
2022-08-03T12:12:07.079Z,99418.88
2022-08-03T12:14:51.094Z,99425.47
2022-08-03T12:17:25.027Z,99421.22
2022-08-03T12:19:55.473Z,99410.53
2022-08-03T12:22:33.404Z,99401.78
2022-08-03T12:25:03.764Z,99408.13
2022-08-03T12:27:39.380Z,99411.84
2022-08-03T12:30:15.652Z,99411.50
2022-08-03T12:32:48.413Z,99398.34
2022-08-03T12:35:25.975Z,99397.09
2022-08-03T12:37:58.577Z,99399.69
2022-08-03T12:40:32.095Z,99391.88
2022-08-03T12:43:18.048Z,99388.44
2022-08-03T12:45:48.367Z,99401.22
2022-08-03T12:48:18.883Z,99386.81
2022-08-03T12:50:55.905Z,99396.75
2022-08-03T12:53:30.308Z,99398.47
2022-08-03T12:56:05.152Z,99398.19
2022-08-03T12:58:41.820Z,99402.88
2022-08-03T13:01:13.834Z,99405.00
2022-08-03T13:03:50.300Z,99408.72
2022-08-03T13:06:26.571Z,99405.13
2022-08-03T13:09:07.059Z,99403.50
2022-08-03T13:11:57.231Z,99405.03
2022-08-03T13:14:31.120Z,99415.22
2022-08-03T13:17:02.238Z,99411.78
2022-08-03T13:19:33.948Z,99415.50
2022-08-03T13:22:13.435Z,99414.59
2022-08-03T13:24:45.281Z,99415.69
2022-08-03T13:28:01.839Z,99411.25
2022-08-03T13:30:30.273Z,99424.34
2022-08-03T13:33:00.852Z,99421.50
2022-08-03T13:35:31.899Z,99423.41
2022-08-03T13:38:02.151Z,99425.22
2022-08-03T13:40:41.307Z,99404.09
2022-08-03T13:43:12.948Z,99418.06
2022-08-03T13:45:54.853Z,99415.50
2022-08-03T13:48:36.744Z,99417.34
2022-08-03T13:51:22.103Z,99419.59
2022-08-03T13:53:59.794Z,99416.28
2022-08-03T13:56:31.322Z,99414.00
2022-08-03T13:59:03.858Z,99414.56
2022-08-03T14:01:54.371Z,99404.66
2022-08-03T14:04:26.071Z,99398.63
2022-08-03T14:06:56.447Z,99399.69
2022-08-03T14:09:31.097Z,99397.19
2022-08-03T14:12:09.030Z,99386.50
2022-08-03T14:14:40.937Z,99387.31
2022-08-03T14:17:13.992Z,99394.78
2022-08-03T14:19:52.958Z,99389.03
2022-08-03T14:22:24.551Z,99384.03
2022-08-03T14:24:54.812Z,99360.34
2022-08-03T14:27:31.597Z,99381.56
2022-08-03T14:30:02.516Z,99378.56
2022-08-03T14:32:34.690Z,99375.59
2022-08-03T14:35:05.586Z,99370.41
2022-08-03T14:37:38.691Z,99380.03
2022-08-03T14:40:10.330Z,99371.22
2022-08-03T14:42:44.039Z,99370.22
2022-08-03T14:45:19.826Z,99356.28
2022-08-03T14:50:29.052Z,99364.31
2022-08-03T14:50:50.748Z,99362.75
2022-08-03T14:53:28.784Z,99356.25
2022-08-03T14:56:05.314Z,99328.63
2022-08-03T14:58:39.959Z,99348.06
2022-08-03T15:02:04.776Z,99353.09
2022-08-03T15:04:03.286Z,99350.88
2022-08-03T15:06:34.303Z,99344.28
2022-08-03T15:09:21.737Z,99347.03
2022-08-03T15:11:54.948Z,99340.16
2022-08-03T15:14:32.366Z,99342.28
2022-08-03T15:17:04.594Z,99342.03
2022-08-03T15:20:00.219Z,99347.53
2022-08-03T15:22:35.062Z,99331.16
2022-08-03T15:26:28.791Z,99343.00
2022-08-03T15:28:07.118Z,99341.63
2022-08-03T15:30:38.601Z,99337.50
2022-08-03T15:33:09.159Z,99337.69
2022-08-03T15:35:42.443Z,99329.78
2022-08-03T15:38:21.449Z,99335.31
2022-08-03T15:40:54.684Z,99330.94
2022-08-03T15:43:30.330Z,99339.44
2022-08-03T15:48:51.365Z,99334.22
2022-08-03T15:51:23.835Z,99333.16
2022-08-03T15:53:54.134Z,99331.81
2022-08-03T15:56:27.516Z,99329.56
2022-08-03T15:59:12.118Z,99328.19
2022-08-03T16:01:45.004Z,99324.28
2022-08-03T16:04:17.239Z,99322.56
2022-08-03T16:06:49.766Z,99326.41
2022-08-03T16:09:24.186Z,99323.59
2022-08-03T16:12:16.149Z,99327.41
2022-08-03T16:14:52.969Z,99319.19
2022-08-03T16:17:24.843Z,99308.19
2022-08-03T16:19:55.472Z,99325.72
2022-08-03T16:22:28.005Z,99316.88
2022-08-03T16:25:03.524Z,99328.47
2022-08-03T16:27:56.762Z,99321.13
2022-08-03T16:30:32.150Z,99327.66
2022-08-03T16:33:05.498Z,99325.09
2022-08-03T16:35:36.829Z,99330.03
2022-08-03T16:38:18.555Z,99331.88
2022-08-03T16:40:52.226Z,99332.69
2022-08-03T16:43:24.712Z,99330.56
2022-08-03T16:45:56.282Z,99333.19
2022-08-03T16:48:28.073Z,99332.03
2022-08-03T16:50:58.759Z,99336.09
2022-08-03T16:53:33.241Z,99337.44
2022-08-03T16:56:23.320Z,99336.63
2022-08-03T16:58:55.791Z,99345.94
2022-08-03T17:01:29.287Z,99336.78
2022-08-03T17:04:10.327Z,99344.34
2022-08-03T17:06:45.384Z,99340.97
2022-08-03T17:09:19.072Z,99347.63
2022-08-03T17:11:52.654Z,99346.16
2022-08-03T17:14:28.548Z,99346.66
2022-08-03T17:17:04.480Z,99340.03
2022-08-03T17:19:47.195Z,99345.44
2022-08-03T17:22:20.853Z,99346.19
2022-08-03T17:24:57.302Z,99347.03
2022-08-03T17:28:48.091Z,99353.84
2022-08-03T17:30:43.207Z,99350.50
2022-08-03T17:33:20.857Z,99358.16
2022-08-03T17:35:56.627Z,99366.38
2022-08-03T17:38:38.076Z,99361.97
2022-08-03T17:41:11.284Z,99364.97
2022-08-03T17:44:08.128Z,99368.22
2022-08-03T17:46:34.607Z,99362.75
2022-08-03T17:49:23.753Z,99364.66
2022-08-03T17:52:03.393Z,99363.41
2022-08-03T17:58:02.004Z,99377.97
2022-08-03T18:00:52.218Z,99377.97
2022-08-03T18:03:59.118Z,99382.03
2022-08-03T18:06:37.117Z,99381.91
2022-08-03T18:10:04.944Z,99388.06
2022-08-03T18:12:07.241Z,99391.06
2022-08-03T18:14:57.782Z,99397.84
2022-08-03T18:17:55.736Z,99404.97
2022-08-03T18:20:32.966Z,99403.25
2022-08-03T18:23:09.188Z,99401.66
2022-08-03T18:25:53.736Z,99411.66
2022-08-03T18:28:33.060Z,99422.09
2022-08-03T18:31:06.847Z,99419.06
2022-08-03T18:34:18.878Z,99430.44
2022-08-03T18:36:39.372Z,99436.44
2022-08-03T18:39:14.687Z,99429.22
2022-08-03T18:41:46.850Z,99417.28
2022-08-03T18:44:53.276Z,99432.78
2022-08-03T18:47:51.605Z,99413.69
2022-08-03T18:50:32.029Z,99443.50
2022-08-03T18:53:15.790Z,99442.66
2022-08-03T18:56:01.316Z,99443.97
2022-08-03T18:58:42.615Z,99439.25
2022-08-03T19:02:00.269Z,99459.28
2022-08-03T19:04:30.645Z,99459.28
2022-08-03T19:07:05.148Z,99457.84
2022-08-03T19:09:52.413Z,99458.59
2022-08-03T19:12:32.512Z,99461.34
2022-08-03T19:18:17.427Z,99472.69
2022-08-03T19:20:53.177Z,99479.16
2022-08-03T19:23:33.916Z,99478.31
2022-08-03T19:26:07.465Z,99450.56
2022-08-03T19:28:59.400Z,99485.94
2022-08-03T19:31:34.997Z,99477.63
2022-08-03T19:34:06.675Z,99492.16
2022-08-03T19:36:44.298Z,99499.78
2022-08-03T19:39:14.555Z,99490.16
2022-08-03T19:41:51.526Z,99477.59
2022-08-03T19:44:32.217Z,99487.56
2022-08-03T19:47:11.418Z,99496.03
2022-08-03T19:50:02.806Z,99490.19
2022-08-03T19:52:42.631Z,99495.91
2022-08-03T19:55:14.098Z,99493.06
2022-08-03T19:57:49.163Z,99489.25
2022-08-03T20:00:26.692Z,99491.66
2022-08-03T20:03:01.060Z,99491.78
2022-08-03T20:05:44.970Z,99496.69
2022-08-03T20:08:24.220Z,99493.50
2022-08-03T20:10:55.793Z,99493.38
2022-08-03T20:13:32.694Z,99491.03
2022-08-03T20:16:10.929Z,99499.09
2022-08-03T20:18:43.570Z,99494.22
2022-08-03T20:21:18.955Z,99505.53
2022-08-03T20:27:00.600Z,99498.00
2022-08-03T20:30:04.852Z,99513.50
2022-08-03T20:32:26.868Z,99506.34
2022-08-03T20:34:58.731Z,99519.28
2022-08-03T20:37:30.632Z,99507.75
2022-08-03T20:40:11.697Z,99524.38
2022-08-03T20:42:56.543Z,99524.75
2022-08-03T20:45:59.800Z,99524.38
2022-08-03T20:48:22.792Z,99525.19
2022-08-03T20:50:59.593Z,99525.28
2022-08-03T20:53:57.102Z,99527.91
2022-08-03T20:56:35.821Z,99529.56
2022-08-03T20:59:14.983Z,99527.16
2022-08-03T21:02:02.118Z,99527.97
2022-08-03T21:04:33.108Z,99525.22
2022-08-03T21:07:16.281Z,99500.09
2022-08-03T21:09:57.077Z,99514.38
2022-08-03T21:12:38.234Z,99526.53
2022-08-03T21:13:01.803Z,99468.38
2022-08-03T21:13:04.462Z,99377.47
2022-08-03T21:13:06.785Z,99498.88
2022-08-03T21:16:02.252Z,99534.94
2022-08-03T21:18:12.201Z,99538.22
2022-08-03T21:20:47.100Z,99532.88
2022-08-03T21:23:39.808Z,99535.56
2022-08-03T21:26:34.421Z,99535.44
2022-08-03T21:29:08.610Z,99539.13
2022-08-03T21:31:41.359Z,99538.03
2022-08-03T21:34:12.936Z,99546.31
2022-08-03T21:36:43.373Z,99545.47
2022-08-03T21:39:14.542Z,99544.34
2022-08-03T21:41:46.253Z,99546.22
2022-08-03T21:44:28.861Z,99550.97
2022-08-03T21:47:05.683Z,99553.75
2022-08-03T21:50:05.805Z,99551.44
2022-08-03T21:52:33.648Z,99555.44
2022-08-03T21:55:07.176Z,99558.78
2022-08-03T21:57:40.642Z,99559.63
2022-08-03T22:00:15.877Z,99563.41
2022-08-03T22:02:55.754Z,99569.47
2022-08-03T22:05:43.610Z,99571.34
2022-08-03T22:08:17.157Z,99573.78
2022-08-03T22:10:49.333Z,99572.13
2022-08-03T22:13:43.645Z,99572.28
2022-08-03T22:16:17.548Z,99563.63
2022-08-03T22:18:50.340Z,99578.50
2022-08-03T22:21:28.136Z,99576.44
2022-08-03T22:24:08.274Z,99555.72
2022-08-03T22:27:04.811Z,99561.88
2022-08-03T22:29:38.322Z,99546.06
2022-08-03T22:32:12.491Z,99581.94
2022-08-03T22:34:44.967Z,99582.91
2022-08-03T22:37:22.161Z,99580.16
2022-08-03T22:39:56.330Z,99573.63
2022-08-03T22:42:29.006Z,99580.22
2022-08-03T22:44:59.909Z,99578.88
2022-08-03T22:47:43.831Z,99564.31
2022-08-03T22:50:31.580Z,99584.31
2022-08-03T22:53:05.890Z,99580.66
2022-08-03T22:55:40.709Z,99531.22
2022-08-03T22:58:15.889Z,99578.53
2022-08-03T23:00:53.629Z,99574.53
2022-08-03T23:04:00.285Z,99580.81
2022-08-03T23:06:25.852Z,99575.38
2022-08-03T23:08:59.085Z,99579.78
2022-08-03T23:11:30.095Z,99575.22
2022-08-03T23:14:06.192Z,99568.41
2022-08-03T23:16:40.579Z,99576.78
2022-08-03T23:19:17.206Z,99580.22
2022-08-03T23:22:02.538Z,99591.13
2022-08-03T23:24:37.393Z,99558.56
2022-08-03T23:27:09.209Z,99586.06
2022-08-03T23:29:44.129Z,99578.50
2022-08-03T23:32:15.673Z,99583.38
2022-08-03T23:35:07.694Z,99574.97
2022-08-03T23:38:04.333Z,99555.56
2022-08-03T23:40:32.677Z,99587.19
2022-08-03T23:43:04.648Z,99581.25
2022-08-03T23:45:38.068Z,99581.25
2022-08-03T23:48:08.161Z,99577.97
2022-08-03T23:50:47.415Z,99577.59
2022-08-03T23:53:23.810Z,99590.13
2022-08-03T23:56:13.766Z,99580.91
2022-08-03T23:59:07.637Z,99582.78
